sensor_id;sensor_type;location;lat;lon;timestamp;P1;durP1;ratioP1;P2;durP2;ratioP2
14276;SDS011;7222;57.346;12.150;2022-07-10T00:00:17;5.77;;;2.10;;
14276;SDS011;7222;57.346;12.150;2022-07-10T00:02:46;5.83;;;2.20;;
14276;SDS011;7222;57.346;12.150;2022-07-10T00:05:13;5.03;;;2.10;;
14276;SDS011;7222;57.346;12.150;2022-07-10T00:07:40;4.60;;;2.17;;
14276;SDS011;7222;57.346;12.150;2022-07-10T00:10:08;3.17;;;2.17;;
14276;SDS011;7222;57.346;12.150;2022-07-10T00:12:35;4.90;;;1.90;;
14276;SDS011;7222;57.346;12.150;2022-07-10T00:15:03;4.40;;;1.90;;
14276;SDS011;7222;57.346;12.150;2022-07-10T00:17:31;3.03;;;1.73;;
14276;SDS011;7222;57.346;12.150;2022-07-10T00:19:58;3.07;;;1.90;;
14276;SDS011;7222;57.346;12.150;2022-07-10T00:22:25;5.23;;;1.63;;
14276;SDS011;7222;57.346;12.150;2022-07-10T00:24:52;2.27;;;1.80;;
14276;SDS011;7222;57.346;12.150;2022-07-10T00:27:20;2.93;;;1.80;;
14276;SDS011;7222;57.346;12.150;2022-07-10T00:29:48;5.63;;;1.80;;
14276;SDS011;7222;57.346;12.150;2022-07-10T00:32:17;5.87;;;1.80;;
14276;SDS011;7222;57.346;12.150;2022-07-10T00:34:44;3.50;;;1.70;;
14276;SDS011;7222;57.346;12.150;2022-07-10T00:37:11;3.33;;;1.70;;
14276;SDS011;7222;57.346;12.150;2022-07-10T00:39:38;5.33;;;1.97;;
14276;SDS011;7222;57.346;12.150;2022-07-10T00:42:05;3.83;;;1.90;;
14276;SDS011;7222;57.346;12.150;2022-07-10T00:44:35;4.20;;;1.60;;
14276;SDS011;7222;57.346;12.150;2022-07-10T00:47:02;4.60;;;1.97;;
14276;SDS011;7222;57.346;12.150;2022-07-10T00:49:30;3.57;;;1.90;;
14276;SDS011;7222;57.346;12.150;2022-07-10T00:51:57;2.63;;;1.90;;
14276;SDS011;7222;57.346;12.150;2022-07-10T00:54:26;4.17;;;2.00;;
14276;SDS011;7222;57.346;12.150;2022-07-10T00:56:54;4.03;;;1.67;;
14276;SDS011;7222;57.346;12.150;2022-07-10T00:59:22;3.70;;;1.60;;
14276;SDS011;7222;57.346;12.150;2022-07-10T01:01:52;2.93;;;1.53;;
14276;SDS011;7222;57.346;12.150;2022-07-10T01:04:20;2.77;;;1.60;;
14276;SDS011;7222;57.346;12.150;2022-07-10T01:06:47;4.07;;;1.60;;
14276;SDS011;7222;57.346;12.150;2022-07-10T01:09:14;4.73;;;1.40;;
14276;SDS011;7222;57.346;12.150;2022-07-10T01:11:41;1.83;;;1.37;;
14276;SDS011;7222;57.346;12.150;2022-07-10T01:14:08;2.43;;;1.70;;
14276;SDS011;7222;57.346;12.150;2022-07-10T01:16:37;3.20;;;1.50;;
14276;SDS011;7222;57.346;12.150;2022-07-10T01:19:05;3.67;;;1.50;;
14276;SDS011;7222;57.346;12.150;2022-07-10T01:21:34;2.70;;;1.60;;
14276;SDS011;7222;57.346;12.150;2022-07-10T01:24:03;1.43;;;1.33;;
14276;SDS011;7222;57.346;12.150;2022-07-10T01:26:33;2.13;;;1.33;;
14276;SDS011;7222;57.346;12.150;2022-07-10T01:29:02;2.00;;;1.47;;
14276;SDS011;7222;57.346;12.150;2022-07-10T01:31:30;3.93;;;1.67;;
14276;SDS011;7222;57.346;12.150;2022-07-10T01:33:58;2.23;;;1.90;;
14276;SDS011;7222;57.346;12.150;2022-07-10T01:36:27;1.90;;;1.23;;
14276;SDS011;7222;57.346;12.150;2022-07-10T01:38:57;3.77;;;1.47;;
14276;SDS011;7222;57.346;12.150;2022-07-10T01:41:25;7.07;;;1.50;;
14276;SDS011;7222;57.346;12.150;2022-07-10T01:43:52;3.10;;;1.50;;
14276;SDS011;7222;57.346;12.150;2022-07-10T01:46:19;4.70;;;1.53;;
14276;SDS011;7222;57.346;12.150;2022-07-10T01:48:46;3.50;;;1.47;;
14276;SDS011;7222;57.346;12.150;2022-07-10T01:51:14;2.10;;;1.40;;
14276;SDS011;7222;57.346;12.150;2022-07-10T01:53:41;3.30;;;1.70;;
14276;SDS011;7222;57.346;12.150;2022-07-10T01:56:10;2.80;;;1.63;;
14276;SDS011;7222;57.346;12.150;2022-07-10T01:58:39;2.57;;;1.50;;
14276;SDS011;7222;57.346;12.150;2022-07-10T02:01:06;3.93;;;1.50;;
14276;SDS011;7222;57.346;12.150;2022-07-10T02:03:34;2.37;;;1.53;;
14276;SDS011;7222;57.346;12.150;2022-07-10T02:06:18;2.07;;;1.37;;
14276;SDS011;7222;57.346;12.150;2022-07-10T02:08:45;4.43;;;1.40;;
14276;SDS011;7222;57.346;12.150;2022-07-10T02:11:13;1.90;;;1.27;;
14276;SDS011;7222;57.346;12.150;2022-07-10T02:13:40;2.73;;;1.13;;
14276;SDS011;7222;57.346;12.150;2022-07-10T02:16:07;1.93;;;1.40;;
14276;SDS011;7222;57.346;12.150;2022-07-10T02:18:35;1.33;;;1.20;;
14276;SDS011;7222;57.346;12.150;2022-07-10T02:21:04;2.93;;;1.63;;
14276;SDS011;7222;57.346;12.150;2022-07-10T02:23:31;1.73;;;1.47;;
14276;SDS011;7222;57.346;12.150;2022-07-10T02:25:59;2.60;;;1.40;;
14276;SDS011;7222;57.346;12.150;2022-07-10T02:28:27;2.67;;;1.30;;
14276;SDS011;7222;57.346;12.150;2022-07-10T02:30:54;2.17;;;1.30;;
14276;SDS011;7222;57.346;12.150;2022-07-10T02:33:21;3.00;;;1.40;;
14276;SDS011;7222;57.346;12.150;2022-07-10T02:35:48;2.13;;;1.30;;
14276;SDS011;7222;57.346;12.150;2022-07-10T02:38:15;3.53;;;1.20;;
14276;SDS011;7222;57.346;12.150;2022-07-10T02:40:43;2.23;;;1.50;;
14276;SDS011;7222;57.346;12.150;2022-07-10T02:43:09;1.40;;;1.30;;
14276;SDS011;7222;57.346;12.150;2022-07-10T02:45:38;1.40;;;1.00;;
14276;SDS011;7222;57.346;12.150;2022-07-10T02:48:05;1.93;;;1.30;;
14276;SDS011;7222;57.346;12.150;2022-07-10T02:50:32;1.57;;;1.17;;
14276;SDS011;7222;57.346;12.150;2022-07-10T02:52:59;2.20;;;1.43;;
14276;SDS011;7222;57.346;12.150;2022-07-10T02:55:27;2.83;;;1.47;;
14276;SDS011;7222;57.346;12.150;2022-07-10T02:57:56;3.83;;;1.50;;
14276;SDS011;7222;57.346;12.150;2022-07-10T03:00:24;2.40;;;1.33;;
14276;SDS011;7222;57.346;12.150;2022-07-10T03:02:52;3.00;;;1.43;;
14276;SDS011;7222;57.346;12.150;2022-07-10T03:05:20;3.77;;;1.60;;
14276;SDS011;7222;57.346;12.150;2022-07-10T03:07:47;1.50;;;1.20;;
14276;SDS011;7222;57.346;12.150;2022-07-10T03:10:14;2.20;;;1.47;;
14276;SDS011;7222;57.346;12.150;2022-07-10T03:12:41;4.47;;;1.73;;
14276;SDS011;7222;57.346;12.150;2022-07-10T03:15:08;5.33;;;1.60;;
14276;SDS011;7222;57.346;12.150;2022-07-10T03:17:35;2.90;;;1.50;;
14276;SDS011;7222;57.346;12.150;2022-07-10T03:20:04;3.90;;;1.50;;
14276;SDS011;7222;57.346;12.150;2022-07-10T03:22:32;2.17;;;1.47;;
14276;SDS011;7222;57.346;12.150;2022-07-10T03:24:59;4.10;;;1.30;;
14276;SDS011;7222;57.346;12.150;2022-07-10T03:27:26;1.40;;;1.27;;
14276;SDS011;7222;57.346;12.150;2022-07-10T03:29:53;1.60;;;1.23;;
14276;SDS011;7222;57.346;12.150;2022-07-10T03:32:20;2.47;;;1.10;;
14276;SDS011;7222;57.346;12.150;2022-07-10T03:34:47;3.33;;;1.30;;
14276;SDS011;7222;57.346;12.150;2022-07-10T03:37:15;1.37;;;1.00;;
14276;SDS011;7222;57.346;12.150;2022-07-10T03:39:42;0.97;;;0.97;;
14276;SDS011;7222;57.346;12.150;2022-07-10T03:42:09;1.83;;;1.20;;
14276;SDS011;7222;57.346;12.150;2022-07-10T03:44:36;1.77;;;1.10;;
14276;SDS011;7222;57.346;12.150;2022-07-10T03:47:03;1.20;;;1.13;;
14276;SDS011;7222;57.346;12.150;2022-07-10T03:49:30;2.20;;;1.00;;
14276;SDS011;7222;57.346;12.150;2022-07-10T03:51:58;1.07;;;1.00;;
14276;SDS011;7222;57.346;12.150;2022-07-10T03:54:27;1.00;;;1.00;;
14276;SDS011;7222;57.346;12.150;2022-07-10T03:56:55;2.67;;;1.17;;
14276;SDS011;7222;57.346;12.150;2022-07-10T03:59:40;2.90;;;0.90;;
14276;SDS011;7222;57.346;12.150;2022-07-10T04:02:07;1.30;;;1.00;;
14276;SDS011;7222;57.346;12.150;2022-07-10T04:04:34;1.13;;;1.00;;
14276;SDS011;7222;57.346;12.150;2022-07-10T04:07:01;1.60;;;0.90;;
14276;SDS011;7222;57.346;12.150;2022-07-10T04:09:31;1.00;;;0.90;;
14276;SDS011;7222;57.346;12.150;2022-07-10T04:11:58;1.17;;;1.00;;
14276;SDS011;7222;57.346;12.150;2022-07-10T04:14:25;1.87;;;1.00;;
14276;SDS011;7222;57.346;12.150;2022-07-10T04:16:52;0.83;;;0.80;;
14276;SDS011;7222;57.346;12.150;2022-07-10T04:19:19;1.33;;;1.03;;
14276;SDS011;7222;57.346;12.150;2022-07-10T04:21:46;0.80;;;0.80;;
14276;SDS011;7222;57.346;12.150;2022-07-10T04:24:14;1.63;;;0.90;;
14276;SDS011;7222;57.346;12.150;2022-07-10T04:26:42;1.30;;;1.20;;
14276;SDS011;7222;57.346;12.150;2022-07-10T04:29:09;2.30;;;1.00;;
14276;SDS011;7222;57.346;12.150;2022-07-10T04:31:36;1.70;;;1.20;;
14276;SDS011;7222;57.346;12.150;2022-07-10T04:34:03;0.90;;;0.90;;
14276;SDS011;7222;57.346;12.150;2022-07-10T04:36:30;1.17;;;0.80;;
14276;SDS011;7222;57.346;12.150;2022-07-10T04:38:57;0.90;;;0.90;;
14276;SDS011;7222;57.346;12.150;2022-07-10T04:41:24;1.27;;;0.93;;
14276;SDS011;7222;57.346;12.150;2022-07-10T04:43:52;1.47;;;0.97;;
14276;SDS011;7222;57.346;12.150;2022-07-10T04:46:19;2.63;;;1.10;;
14276;SDS011;7222;57.346;12.150;2022-07-10T04:48:46;1.33;;;1.10;;
14276;SDS011;7222;57.346;12.150;2022-07-10T04:51:13;1.57;;;1.40;;
14276;SDS011;7222;57.346;12.150;2022-07-10T04:53:40;1.40;;;1.00;;
14276;SDS011;7222;57.346;12.150;2022-07-10T04:56:07;1.00;;;0.97;;
14276;SDS011;7222;57.346;12.150;2022-07-10T04:58:34;1.73;;;1.00;;
14276;SDS011;7222;57.346;12.150;2022-07-10T05:01:02;1.50;;;0.83;;
14276;SDS011;7222;57.346;12.150;2022-07-10T05:03:29;0.77;;;0.77;;
14276;SDS011;7222;57.346;12.150;2022-07-10T05:05:56;1.83;;;0.80;;
14276;SDS011;7222;57.346;12.150;2022-07-10T05:08:23;1.47;;;1.00;;
14276;SDS011;7222;57.346;12.150;2022-07-10T05:10:50;1.33;;;0.90;;
14276;SDS011;7222;57.346;12.150;2022-07-10T05:13:17;1.00;;;0.90;;
14276;SDS011;7222;57.346;12.150;2022-07-10T05:15:45;0.90;;;0.90;;
14276;SDS011;7222;57.346;12.150;2022-07-10T05:18:14;1.10;;;0.87;;
14276;SDS011;7222;57.346;12.150;2022-07-10T05:20:41;1.00;;;0.90;;
14276;SDS011;7222;57.346;12.150;2022-07-10T05:23:10;0.80;;;0.80;;
14276;SDS011;7222;57.346;12.150;2022-07-10T05:25:37;1.13;;;0.80;;
14276;SDS011;7222;57.346;12.150;2022-07-10T05:28:05;1.43;;;1.10;;
14276;SDS011;7222;57.346;12.150;2022-07-10T05:30:32;1.50;;;0.80;;
14276;SDS011;7222;57.346;12.150;2022-07-10T05:32:59;0.80;;;0.80;;
14276;SDS011;7222;57.346;12.150;2022-07-10T05:35:27;1.60;;;0.80;;
14276;SDS011;7222;57.346;12.150;2022-07-10T05:37:54;0.80;;;0.80;;
14276;SDS011;7222;57.346;12.150;2022-07-10T05:40:21;0.70;;;0.70;;
14276;SDS011;7222;57.346;12.150;2022-07-10T05:42:48;0.70;;;0.60;;
14276;SDS011;7222;57.346;12.150;2022-07-10T05:45:15;1.40;;;0.80;;
14276;SDS011;7222;57.346;12.150;2022-07-10T05:47:42;0.80;;;0.80;;
14276;SDS011;7222;57.346;12.150;2022-07-10T05:50:10;0.70;;;0.70;;
14276;SDS011;7222;57.346;12.150;2022-07-10T05:52:39;0.70;;;0.70;;
14276;SDS011;7222;57.346;12.150;2022-07-10T05:55:06;0.83;;;0.73;;
14276;SDS011;7222;57.346;12.150;2022-07-10T05:57:34;1.27;;;0.83;;
14276;SDS011;7222;57.346;12.150;2022-07-10T06:00:01;0.60;;;0.60;;
14276;SDS011;7222;57.346;12.150;2022-07-10T06:02:30;1.40;;;0.60;;
14276;SDS011;7222;57.346;12.150;2022-07-10T06:04:57;0.90;;;0.63;;
14276;SDS011;7222;57.346;12.150;2022-07-10T06:07:24;0.60;;;0.60;;
14276;SDS011;7222;57.346;12.150;2022-07-10T06:09:53;0.60;;;0.60;;
14276;SDS011;7222;57.346;12.150;2022-07-10T06:12:20;0.50;;;0.50;;
14276;SDS011;7222;57.346;12.150;2022-07-10T06:14:48;1.07;;;0.60;;
14276;SDS011;7222;57.346;12.150;2022-07-10T06:17:15;0.97;;;0.60;;
14276;SDS011;7222;57.346;12.150;2022-07-10T06:19:42;0.60;;;0.60;;
14276;SDS011;7222;57.346;12.150;2022-07-10T06:22:09;0.50;;;0.50;;
14276;SDS011;7222;57.346;12.150;2022-07-10T06:24:55;0.50;;;0.50;;
14276;SDS011;7222;57.346;12.150;2022-07-10T06:27:23;0.60;;;0.60;;
14276;SDS011;7222;57.346;12.150;2022-07-10T06:29:50;1.90;;;0.50;;
14276;SDS011;7222;57.346;12.150;2022-07-10T06:32:17;0.40;;;0.40;;
14276;SDS011;7222;57.346;12.150;2022-07-10T06:34:44;0.70;;;0.40;;
14276;SDS011;7222;57.346;12.150;2022-07-10T06:37:11;1.00;;;0.40;;
14276;SDS011;7222;57.346;12.150;2022-07-10T06:39:38;1.07;;;0.50;;
14276;SDS011;7222;57.346;12.150;2022-07-10T06:42:07;0.40;;;0.40;;
14276;SDS011;7222;57.346;12.150;2022-07-10T06:44:34;0.47;;;0.47;;
14276;SDS011;7222;57.346;12.150;2022-07-10T06:47:01;0.50;;;0.50;;
14276;SDS011;7222;57.346;12.150;2022-07-10T06:49:46;0.30;;;0.30;;
14276;SDS011;7222;57.346;12.150;2022-07-10T06:52:14;0.30;;;0.30;;
14276;SDS011;7222;57.346;12.150;2022-07-10T06:54:42;0.30;;;0.30;;
14276;SDS011;7222;57.346;12.150;2022-07-10T06:57:11;0.53;;;0.53;;
14276;SDS011;7222;57.346;12.150;2022-07-10T06:59:38;0.70;;;0.40;;
14276;SDS011;7222;57.346;12.150;2022-07-10T07:02:05;0.33;;;0.33;;
14276;SDS011;7222;57.346;12.150;2022-07-10T07:04:32;0.40;;;0.40;;
14276;SDS011;7222;57.346;12.150;2022-07-10T07:06:59;0.47;;;0.30;;
14276;SDS011;7222;57.346;12.150;2022-07-10T07:09:28;0.57;;;0.40;;
14276;SDS011;7222;57.346;12.150;2022-07-10T07:11:55;0.30;;;0.30;;
14276;SDS011;7222;57.346;12.150;2022-07-10T07:14:24;0.23;;;0.23;;
14276;SDS011;7222;57.346;12.150;2022-07-10T07:16:51;1.40;;;0.37;;
14276;SDS011;7222;57.346;12.150;2022-07-10T07:19:27;0.87;;;0.40;;
14276;SDS011;7222;57.346;12.150;2022-07-10T07:21:57;0.60;;;0.50;;
14276;SDS011;7222;57.346;12.150;2022-07-10T07:24:42;0.30;;;0.30;;
14276;SDS011;7222;57.346;12.150;2022-07-10T07:27:09;0.30;;;0.30;;
14276;SDS011;7222;57.346;12.150;2022-07-10T07:29:38;0.30;;;0.30;;
14276;SDS011;7222;57.346;12.150;2022-07-10T07:32:05;0.30;;;0.30;;
14276;SDS011;7222;57.346;12.150;2022-07-10T07:34:33;0.30;;;0.30;;
14276;SDS011;7222;57.346;12.150;2022-07-10T07:37:00;0.90;;;0.30;;
14276;SDS011;7222;57.346;12.150;2022-07-10T07:39:27;0.30;;;0.30;;
14276;SDS011;7222;57.346;12.150;2022-07-10T07:41:54;0.40;;;0.40;;
14276;SDS011;7222;57.346;12.150;2022-07-10T07:44:21;0.30;;;0.30;;
14276;SDS011;7222;57.346;12.150;2022-07-10T07:46:49;0.43;;;0.43;;
14276;SDS011;7222;57.346;12.150;2022-07-10T07:49:17;0.20;;;0.20;;
14276;SDS011;7222;57.346;12.150;2022-07-10T07:51:44;1.37;;;0.30;;
14276;SDS011;7222;57.346;12.150;2022-07-10T07:54:12;0.23;;;0.23;;
14276;SDS011;7222;57.346;12.150;2022-07-10T07:56:40;0.30;;;0.30;;
14276;SDS011;7222;57.346;12.150;2022-07-10T07:59:07;0.30;;;0.30;;
14276;SDS011;7222;57.346;12.150;2022-07-10T08:01:35;0.50;;;0.30;;
14276;SDS011;7222;57.346;12.150;2022-07-10T08:04:04;0.30;;;0.23;;
14276;SDS011;7222;57.346;12.150;2022-07-10T08:06:31;0.20;;;0.20;;
14276;SDS011;7222;57.346;12.150;2022-07-10T08:08:58;0.30;;;0.30;;
14276;SDS011;7222;57.346;12.150;2022-07-10T08:11:25;0.27;;;0.27;;
14276;SDS011;7222;57.346;12.150;2022-07-10T08:13:52;0.13;;;0.13;;
14276;SDS011;7222;57.346;12.150;2022-07-10T08:16:18;0.67;;;0.20;;
14276;SDS011;7222;57.346;12.150;2022-07-10T08:18:45;0.30;;;0.30;;
14276;SDS011;7222;57.346;12.150;2022-07-10T08:21:14;0.30;;;0.30;;
14276;SDS011;7222;57.346;12.150;2022-07-10T08:23:41;0.17;;;0.17;;
14276;SDS011;7222;57.346;12.150;2022-07-10T08:26:08;0.30;;;0.30;;
14276;SDS011;7222;57.346;12.150;2022-07-10T08:28:34;0.40;;;0.40;;
14276;SDS011;7222;57.346;12.150;2022-07-10T08:31:01;0.30;;;0.30;;
14276;SDS011;7222;57.346;12.150;2022-07-10T08:33:29;0.30;;;0.30;;
14276;SDS011;7222;57.346;12.150;2022-07-10T08:35:56;0.30;;;0.30;;
14276;SDS011;7222;57.346;12.150;2022-07-10T08:38:26;0.67;;;0.30;;
14276;SDS011;7222;57.346;12.150;2022-07-10T08:40:53;0.40;;;0.30;;
14276;SDS011;7222;57.346;12.150;2022-07-10T08:43:22;0.40;;;0.30;;
14276;SDS011;7222;57.346;12.150;2022-07-10T08:45:50;0.30;;;0.30;;
14276;SDS011;7222;57.346;12.150;2022-07-10T08:48:19;0.30;;;0.30;;
14276;SDS011;7222;57.346;12.150;2022-07-10T08:50:51;0.30;;;0.30;;
14276;SDS011;7222;57.346;12.150;2022-07-10T08:53:21;0.27;;;0.27;;
14276;SDS011;7222;57.346;12.150;2022-07-10T08:55:55;0.20;;;0.20;;
14276;SDS011;7222;57.346;12.150;2022-07-10T08:58:23;0.27;;;0.27;;
14276;SDS011;7222;57.346;12.150;2022-07-10T09:00:52;0.10;;;0.10;;
14276;SDS011;7222;57.346;12.150;2022-07-10T09:03:19;0.30;;;0.30;;
14276;SDS011;7222;57.346;12.150;2022-07-10T09:05:46;0.20;;;0.20;;
14276;SDS011;7222;57.346;12.150;2022-07-10T09:08:22;0.10;;;0.10;;
14276;SDS011;7222;57.346;12.150;2022-07-10T09:10:52;0.20;;;0.20;;
14276;SDS011;7222;57.346;12.150;2022-07-10T09:13:20;0.63;;;0.13;;
14276;SDS011;7222;57.346;12.150;2022-07-10T09:15:49;0.20;;;0.20;;
14276;SDS011;7222;57.346;12.150;2022-07-10T09:18:18;0.20;;;0.20;;
14276;SDS011;7222;57.346;12.150;2022-07-10T09:20:50;0.30;;;0.30;;
14276;SDS011;7222;57.346;12.150;2022-07-10T09:23:17;0.20;;;0.20;;
14276;SDS011;7222;57.346;12.150;2022-07-10T09:25:45;0.30;;;0.30;;
14276;SDS011;7222;57.346;12.150;2022-07-10T09:28:15;0.30;;;0.30;;
14276;SDS011;7222;57.346;12.150;2022-07-10T09:30:45;0.30;;;0.30;;
14276;SDS011;7222;57.346;12.150;2022-07-10T09:33:17;0.30;;;0.30;;
14276;SDS011;7222;57.346;12.150;2022-07-10T09:35:56;0.50;;;0.23;;
14276;SDS011;7222;57.346;12.150;2022-07-10T09:38:55;0.30;;;0.30;;
14276;SDS011;7222;57.346;12.150;2022-07-10T09:41:26;0.37;;;0.20;;
14276;SDS011;7222;57.346;12.150;2022-07-10T09:43:54;0.30;;;0.30;;
14276;SDS011;7222;57.346;12.150;2022-07-10T09:46:25;0.20;;;0.20;;
14276;SDS011;7222;57.346;12.150;2022-07-10T09:49:06;0.30;;;0.30;;
14276;SDS011;7222;57.346;12.150;2022-07-10T09:51:36;0.57;;;0.20;;
14276;SDS011;7222;57.346;12.150;2022-07-10T09:54:05;0.20;;;0.20;;
14276;SDS011;7222;57.346;12.150;2022-07-10T09:56:38;0.80;;;0.30;;
14276;SDS011;7222;57.346;12.150;2022-07-10T09:59:10;0.63;;;0.20;;
14276;SDS011;7222;57.346;12.150;2022-07-10T10:01:42;0.30;;;0.30;;
14276;SDS011;7222;57.346;12.150;2022-07-10T10:04:11;0.30;;;0.30;;
14276;SDS011;7222;57.346;12.150;2022-07-10T10:06:39;0.30;;;0.30;;
14276;SDS011;7222;57.346;12.150;2022-07-10T10:09:10;0.30;;;0.30;;
14276;SDS011;7222;57.346;12.150;2022-07-10T10:11:43;0.27;;;0.27;;
14276;SDS011;7222;57.346;12.150;2022-07-10T10:14:11;0.20;;;0.20;;
14276;SDS011;7222;57.346;12.150;2022-07-10T10:16:38;0.40;;;0.37;;
14276;SDS011;7222;57.346;12.150;2022-07-10T10:19:09;0.93;;;0.20;;
14276;SDS011;7222;57.346;12.150;2022-07-10T10:21:55;0.83;;;0.20;;
14276;SDS011;7222;57.346;12.150;2022-07-10T10:24:23;0.23;;;0.20;;
14276;SDS011;7222;57.346;12.150;2022-07-10T10:26:52;0.30;;;0.30;;
14276;SDS011;7222;57.346;12.150;2022-07-10T10:29:19;0.40;;;0.30;;
14276;SDS011;7222;57.346;12.150;2022-07-10T10:31:48;0.60;;;0.40;;
14276;SDS011;7222;57.346;12.150;2022-07-10T10:34:19;0.50;;;0.30;;
14276;SDS011;7222;57.346;12.150;2022-07-10T10:37:05;0.33;;;0.33;;
14276;SDS011;7222;57.346;12.150;2022-07-10T10:39:41;0.53;;;0.43;;
14276;SDS011;7222;57.346;12.150;2022-07-10T10:42:31;0.40;;;0.40;;
14276;SDS011;7222;57.346;12.150;2022-07-10T10:48:07;0.60;;;0.37;;
14276;SDS011;7222;57.346;12.150;2022-07-10T10:50:38;1.20;;;0.37;;
14276;SDS011;7222;57.346;12.150;2022-07-10T10:53:12;0.50;;;0.40;;
14276;SDS011;7222;57.346;12.150;2022-07-10T10:55:41;1.23;;;0.60;;
14276;SDS011;7222;57.346;12.150;2022-07-10T10:58:40;1.70;;;0.57;;
14276;SDS011;7222;57.346;12.150;2022-07-10T11:01:24;0.73;;;0.30;;
14276;SDS011;7222;57.346;12.150;2022-07-10T11:06:48;0.98;;;0.55;;
14276;SDS011;7222;57.346;12.150;2022-07-10T11:09:25;0.75;;;0.50;;
14276;SDS011;7222;57.346;12.150;2022-07-10T11:12:00;0.73;;;0.40;;
14276;SDS011;7222;57.346;12.150;2022-07-10T11:14:30;0.65;;;0.50;;
14276;SDS011;7222;57.346;12.150;2022-07-10T11:16:58;0.45;;;0.40;;
14276;SDS011;7222;57.346;12.150;2022-07-10T11:19:27;1.20;;;0.40;;
14276;SDS011;7222;57.346;12.150;2022-07-10T11:21:58;0.30;;;0.30;;
14276;SDS011;7222;57.346;12.150;2022-07-10T11:24:40;0.32;;;0.32;;
14276;SDS011;7222;57.346;12.150;2022-07-10T11:27:24;0.30;;;0.30;;
14276;SDS011;7222;57.346;12.150;2022-07-10T11:29:57;0.70;;;0.43;;
14276;SDS011;7222;57.346;12.150;2022-07-10T11:32:24;0.83;;;0.50;;
14276;SDS011;7222;57.346;12.150;2022-07-10T11:34:52;0.85;;;0.55;;
14276;SDS011;7222;57.346;12.150;2022-07-10T11:37:19;0.70;;;0.30;;
14276;SDS011;7222;57.346;12.150;2022-07-10T11:39:48;0.98;;;0.65;;
14276;SDS011;7222;57.346;12.150;2022-07-10T11:42:15;1.03;;;0.53;;
14276;SDS011;7222;57.346;12.150;2022-07-10T11:44:42;1.15;;;0.50;;
14276;SDS011;7222;57.346;12.150;2022-07-10T11:47:09;1.38;;;0.40;;
14276;SDS011;7222;57.346;12.150;2022-07-10T11:49:43;1.25;;;0.50;;
14276;SDS011;7222;57.346;12.150;2022-07-10T11:52:12;1.50;;;0.50;;
14276;SDS011;7222;57.346;12.150;2022-07-10T11:54:39;0.73;;;0.50;;
14276;SDS011;7222;57.346;12.150;2022-07-10T11:57:07;0.70;;;0.60;;
14276;SDS011;7222;57.346;12.150;2022-07-10T11:59:35;0.97;;;0.50;;
14276;SDS011;7222;57.346;12.150;2022-07-10T12:02:03;1.25;;;0.50;;
14276;SDS011;7222;57.346;12.150;2022-07-10T12:04:31;0.63;;;0.40;;
14276;SDS011;7222;57.346;12.150;2022-07-10T12:06:58;0.60;;;0.60;;
14276;SDS011;7222;57.346;12.150;2022-07-10T12:09:27;2.63;;;0.73;;
14276;SDS011;7222;57.346;12.150;2022-07-10T12:12:00;1.90;;;0.50;;
14276;SDS011;7222;57.346;12.150;2022-07-10T12:14:28;0.85;;;0.40;;
14276;SDS011;7222;57.346;12.150;2022-07-10T12:16:55;1.40;;;0.50;;
14276;SDS011;7222;57.346;12.150;2022-07-10T12:19:24;1.27;;;0.38;;
14276;SDS011;7222;57.346;12.150;2022-07-10T12:21:53;1.55;;;0.60;;
14276;SDS011;7222;57.346;12.150;2022-07-10T12:24:20;0.63;;;0.40;;
14276;SDS011;7222;57.346;12.150;2022-07-10T12:26:50;1.23;;;0.40;;
14276;SDS011;7222;57.346;12.150;2022-07-10T12:29:19;0.60;;;0.47;;
14276;SDS011;7222;57.346;12.150;2022-07-10T12:31:47;0.40;;;0.40;;
14276;SDS011;7222;57.346;12.150;2022-07-10T12:34:15;1.20;;;0.50;;
14276;SDS011;7222;57.346;12.150;2022-07-10T12:36:46;2.10;;;0.50;;
14276;SDS011;7222;57.346;12.150;2022-07-10T12:39:16;1.25;;;0.50;;
14276;SDS011;7222;57.346;12.150;2022-07-10T12:41:58;0.30;;;0.30;;
14276;SDS011;7222;57.346;12.150;2022-07-10T12:44:31;0.80;;;0.40;;
14276;SDS011;7222;57.346;12.150;2022-07-10T12:47:03;0.30;;;0.30;;
14276;SDS011;7222;57.346;12.150;2022-07-10T12:49:53;0.77;;;0.45;;
14276;SDS011;7222;57.346;12.150;2022-07-10T12:52:21;0.68;;;0.63;;
14276;SDS011;7222;57.346;12.150;2022-07-10T12:55:04;0.50;;;0.50;;
14276;SDS011;7222;57.346;12.150;2022-07-10T12:57:33;1.08;;;0.55;;
14276;SDS011;7222;57.346;12.150;2022-07-10T13:00:12;0.88;;;0.40;;
14276;SDS011;7222;57.346;12.150;2022-07-10T13:02:41;1.10;;;0.50;;
14276;SDS011;7222;57.346;12.150;2022-07-10T13:05:08;1.48;;;0.50;;
14276;SDS011;7222;57.346;12.150;2022-07-10T13:07:35;0.25;;;0.20;;
14276;SDS011;7222;57.346;12.150;2022-07-10T13:10:04;1.05;;;0.55;;
14276;SDS011;7222;57.346;12.150;2022-07-10T13:12:33;0.98;;;0.40;;
14276;SDS011;7222;57.346;12.150;2022-07-10T13:15:00;0.63;;;0.43;;
14276;SDS011;7222;57.346;12.150;2022-07-10T13:17:28;0.73;;;0.40;;
14276;SDS011;7222;57.346;12.150;2022-07-10T13:19:55;1.38;;;0.30;;
14276;SDS011;7222;57.346;12.150;2022-07-10T13:22:22;0.85;;;0.40;;
14276;SDS011;7222;57.346;12.150;2022-07-10T13:24:49;1.30;;;0.40;;
14276;SDS011;7222;57.346;12.150;2022-07-10T13:27:15;1.37;;;0.40;;
14276;SDS011;7222;57.346;12.150;2022-07-10T13:29:44;0.60;;;0.50;;
14276;SDS011;7222;57.346;12.150;2022-07-10T13:32:13;0.93;;;0.33;;
14276;SDS011;7222;57.346;12.150;2022-07-10T13:34:40;0.60;;;0.43;;
14276;SDS011;7222;57.346;12.150;2022-07-10T13:37:07;1.00;;;0.43;;
14276;SDS011;7222;57.346;12.150;2022-07-10T13:39:34;0.60;;;0.40;;
14276;SDS011;7222;57.346;12.150;2022-07-10T13:42:01;0.40;;;0.40;;
14276;SDS011;7222;57.346;12.150;2022-07-10T13:44:28;2.50;;;0.67;;
14276;SDS011;7222;57.346;12.150;2022-07-10T13:46:56;1.17;;;0.60;;
14276;SDS011;7222;57.346;12.150;2022-07-10T13:49:23;0.30;;;0.30;;
14276;SDS011;7222;57.346;12.150;2022-07-10T13:51:52;0.40;;;0.40;;
14276;SDS011;7222;57.346;12.150;2022-07-10T13:54:19;0.93;;;0.40;;
14276;SDS011;7222;57.346;12.150;2022-07-10T13:56:46;0.70;;;0.40;;
14276;SDS011;7222;57.346;12.150;2022-07-10T13:59:13;0.30;;;0.30;;
14276;SDS011;7222;57.346;12.150;2022-07-10T14:01:40;0.67;;;0.50;;
14276;SDS011;7222;57.346;12.150;2022-07-10T14:04:08;0.83;;;0.67;;
14276;SDS011;7222;57.346;12.150;2022-07-10T14:06:35;1.50;;;0.60;;
14276;SDS011;7222;57.346;12.150;2022-07-10T14:09:02;0.80;;;0.55;;
14276;SDS011;7222;57.346;12.150;2022-07-10T14:11:29;0.40;;;0.40;;
14276;SDS011;7222;57.346;12.150;2022-07-10T14:13:56;0.52;;;0.35;;
14276;SDS011;7222;57.346;12.150;2022-07-10T14:16:23;0.45;;;0.43;;
14276;SDS011;7222;57.346;12.150;2022-07-10T14:18:50;0.38;;;0.38;;
14276;SDS011;7222;57.346;12.150;2022-07-10T14:21:20;2.40;;;0.95;;
14276;SDS011;7222;57.346;12.150;2022-07-10T14:23:50;1.33;;;0.60;;
14276;SDS011;7222;57.346;12.150;2022-07-10T14:26:17;1.90;;;0.70;;
14276;SDS011;7222;57.346;12.150;2022-07-10T14:28:44;1.63;;;0.70;;
14276;SDS011;7222;57.346;12.150;2022-07-10T14:31:12;0.60;;;0.50;;
14276;SDS011;7222;57.346;12.150;2022-07-10T14:33:39;0.60;;;0.60;;
14276;SDS011;7222;57.346;12.150;2022-07-10T14:36:06;2.25;;;0.60;;
14276;SDS011;7222;57.346;12.150;2022-07-10T14:38:35;1.15;;;0.50;;
14276;SDS011;7222;57.346;12.150;2022-07-10T14:41:03;1.95;;;0.57;;
14276;SDS011;7222;57.346;12.150;2022-07-10T14:43:31;1.50;;;0.60;;
14276;SDS011;7222;57.346;12.150;2022-07-10T14:45:58;0.73;;;0.60;;
14276;SDS011;7222;57.346;12.150;2022-07-10T14:48:28;1.73;;;0.57;;
14276;SDS011;7222;57.346;12.150;2022-07-10T14:50:55;1.30;;;0.60;;
14276;SDS011;7222;57.346;12.150;2022-07-10T14:53:23;1.60;;;0.80;;
14276;SDS011;7222;57.346;12.150;2022-07-10T14:55:52;1.67;;;0.70;;
14276;SDS011;7222;57.346;12.150;2022-07-10T14:58:19;4.13;;;0.87;;
14276;SDS011;7222;57.346;12.150;2022-07-10T15:00:46;1.43;;;0.53;;
14276;SDS011;7222;57.346;12.150;2022-07-10T15:03:13;2.07;;;0.70;;